Terminal Aerodrome Forecast
Issued by NWS Cleveland, OH

Home | Current Version | Previous Version | Text Only | Print | Product List | Glossary On
Versions: 1 2 3 4 5 6 7 8 9 10 11 12 13 14 15 16 17
000
FTUS41 KCLE 280400 AAB
TAFCAK
TAF AMD
KCAK 280424Z 2804/2824 24010KT 3SM -SHRA BKN006 OVC018
     FM280700 26012KT 6SM -SHRA SCT006 OVC018
      TEMPO 2807/2810 4SM -SHRA SCT018 OVC025
     FM281000 30010KT P6SM SCT008 OVC015
      TEMPO 2810/2812 3SM -SHRASNPL BKN008
     FM281700 31010KT P6SM OVC022=

USA.gov is the U.S. government's official web portal to all federal, state and local government web resources and services.